createdAt,value
2022-08-03T00:00:24.197Z,1.83
2022-08-03T00:03:11.095Z,1.75
2022-08-03T00:06:03.820Z,2.10
2022-08-03T00:08:51.815Z,1.67
2022-08-03T00:11:38.844Z,2.20
2022-08-03T00:14:25.648Z,2.10
2022-08-03T00:17:12.446Z,2.27
2022-08-03T00:19:59.282Z,1.87
2022-08-03T00:22:46.084Z,2.50
2022-08-03T00:25:37.228Z,2.15
2022-08-03T00:28:24.089Z,1.90
2022-08-03T00:31:14.112Z,1.95
2022-08-03T00:34:03.400Z,1.90
2022-08-03T00:36:51.205Z,2.17
2022-08-03T00:39:38.081Z,2.20
2022-08-03T00:42:28.570Z,2.20
2022-08-03T00:45:15.589Z,2.25
2022-08-03T00:48:03.846Z,2.10
2022-08-03T00:50:50.716Z,1.95
2022-08-03T00:53:41.281Z,2.00
2022-08-03T00:56:28.122Z,2.10
2022-08-03T00:59:15.151Z,2.20
2022-08-03T01:02:02.326Z,2.10
2022-08-03T01:04:49.224Z,1.80
2022-08-03T01:08:00.768Z,1.85
2022-08-03T01:10:53.454Z,2.03
2022-08-03T01:14:18.897Z,2.15
2022-08-03T01:17:31.988Z,2.20
2022-08-03T01:20:20.808Z,1.83
2022-08-03T01:23:45.740Z,1.90
2022-08-03T01:26:52.935Z,2.03
2022-08-03T01:30:10.345Z,1.80
2022-08-03T01:33:09.353Z,1.90
2022-08-03T01:36:03.281Z,1.88
2022-08-03T01:38:58.821Z,1.92
2022-08-03T01:42:03.732Z,1.85
2022-08-03T01:44:52.734Z,2.08
2022-08-03T01:47:41.037Z,1.85
2022-08-03T01:50:30.791Z,1.80
2022-08-03T01:53:19.079Z,1.90
2022-08-03T01:56:07.243Z,1.98
2022-08-03T01:58:56.260Z,2.20
2022-08-03T02:02:31.722Z,1.73
2022-08-03T02:04:54.494Z,1.70
2022-08-03T02:07:42.723Z,1.80
2022-08-03T02:10:34.851Z,1.95
2022-08-03T02:13:24.590Z,1.80
2022-08-03T02:16:19.098Z,1.95
2022-08-03T02:19:07.525Z,1.80
2022-08-03T02:21:56.316Z,1.70
2022-08-03T02:24:49.299Z,1.75
2022-08-03T02:27:43.797Z,1.60
2022-08-03T02:30:40.465Z,1.55
2022-08-03T02:33:31.791Z,1.73
2022-08-03T02:36:26.807Z,1.98
2022-08-03T02:39:16.574Z,2.00
2022-08-03T02:42:05.418Z,2.00
2022-08-03T02:44:55.726Z,2.03
2022-08-03T02:47:54.580Z,1.83
2022-08-03T02:50:44.612Z,1.90
2022-08-03T02:53:32.786Z,1.73
2022-08-03T02:56:19.933Z,1.75
2022-08-03T02:59:07.768Z,1.85
2022-08-03T03:01:55.641Z,1.60
2022-08-03T03:05:52.906Z,1.80
2022-08-03T03:07:53.130Z,1.38
2022-08-03T03:10:41.169Z,1.23
2022-08-03T03:13:30.240Z,1.58
2022-08-03T03:16:18.247Z,1.45
2022-08-03T03:19:05.475Z,1.80
2022-08-03T03:21:53.295Z,1.70
2022-08-03T03:27:29.025Z,1.70
2022-08-03T03:30:16.849Z,1.80
2022-08-03T03:33:03.824Z,2.05
2022-08-03T03:35:51.934Z,1.63
2022-08-03T03:38:38.737Z,1.70
2022-08-03T03:41:25.698Z,1.70
2022-08-03T03:44:12.581Z,1.50
2022-08-03T03:46:59.805Z,1.53
2022-08-03T03:49:46.737Z,1.70
2022-08-03T03:52:37.039Z,1.55
2022-08-03T03:55:23.996Z,1.50
2022-08-03T03:58:10.800Z,1.60
2022-08-03T04:00:57.906Z,1.80
2022-08-03T04:03:44.940Z,1.83
2022-08-03T04:06:50.642Z,1.60
2022-08-03T04:09:59.192Z,1.70
2022-08-03T04:13:03.566Z,1.60
2022-08-03T04:15:51.704Z,1.63
2022-08-03T04:18:41.344Z,1.60
2022-08-03T04:21:30.132Z,1.42
2022-08-03T04:24:19.023Z,1.60
2022-08-03T04:27:09.506Z,1.63
2022-08-03T04:30:01.579Z,1.58
2022-08-03T04:32:51.821Z,1.60
2022-08-03T04:36:01.886Z,1.63
2022-08-03T04:39:06.735Z,1.50
2022-08-03T04:42:04.704Z,1.70
2022-08-03T04:45:01.068Z,1.70
2022-08-03T04:47:50.193Z,1.30
2022-08-03T04:50:37.179Z,1.85
2022-08-03T04:53:24.211Z,1.63
2022-08-03T04:56:11.032Z,1.40
2022-08-03T04:58:57.872Z,1.60
2022-08-03T05:01:44.719Z,1.50
2022-08-03T05:04:31.555Z,1.33
2022-08-03T05:07:24.136Z,1.25
2022-08-03T05:10:16.410Z,1.27
2022-08-03T05:13:04.382Z,1.15
2022-08-03T05:15:51.206Z,1.48
2022-08-03T05:18:38.416Z,1.52
2022-08-03T05:21:25.392Z,1.40
2022-08-03T05:24:28.440Z,1.50
2022-08-03T05:27:19.530Z,1.70
2022-08-03T05:30:29.627Z,1.67
2022-08-03T05:33:13.910Z,1.75
2022-08-03T05:36:04.280Z,1.80
2022-08-03T05:38:51.404Z,1.60
2022-08-03T05:41:38.241Z,1.50
2022-08-03T05:44:25.626Z,1.30
2022-08-03T05:47:12.599Z,1.50
2022-08-03T05:49:59.410Z,1.45
2022-08-03T05:52:46.714Z,1.50
2022-08-03T05:55:33.777Z,1.92
2022-08-03T05:58:20.577Z,2.10
2022-08-03T06:01:07.376Z,2.63
2022-08-03T06:03:54.476Z,2.63
2022-08-03T06:06:42.134Z,2.70
2022-08-03T06:12:36.710Z,2.60
2022-08-03T06:15:23.528Z,2.90
2022-08-03T06:18:10.383Z,2.50
2022-08-03T06:20:57.230Z,2.40
2022-08-03T06:23:54.397Z,2.40
2022-08-03T06:29:29.164Z,2.10
2022-08-03T06:32:16.515Z,2.27
2022-08-03T06:35:06.206Z,2.10
2022-08-03T06:37:53.000Z,2.10
2022-08-03T06:40:40.144Z,1.73
2022-08-03T06:43:26.914Z,1.90
2022-08-03T06:46:13.700Z,2.00
2022-08-03T06:49:00.531Z,2.30
2022-08-03T06:52:03.742Z,1.83
2022-08-03T06:54:53.193Z,2.33
2022-08-03T06:57:39.932Z,2.17
2022-08-03T07:00:28.072Z,2.20
2022-08-03T07:03:15.123Z,2.53
2022-08-03T07:06:01.932Z,2.50
2022-08-03T07:08:52.931Z,2.15
2022-08-03T07:11:41.338Z,2.10
2022-08-03T07:14:28.282Z,1.90
2022-08-03T07:17:15.674Z,2.28
2022-08-03T07:20:05.386Z,2.03
2022-08-03T07:22:52.212Z,1.70
2022-08-03T07:25:38.996Z,2.07
2022-08-03T07:28:25.783Z,2.20
2022-08-03T07:31:12.568Z,2.30
2022-08-03T07:33:59.436Z,1.80
2022-08-03T07:36:46.360Z,1.90
2022-08-03T07:39:33.463Z,2.38
2022-08-03T07:42:20.513Z,2.17
2022-08-03T07:45:08.229Z,2.15
2022-08-03T07:48:06.442Z,2.20
2022-08-03T07:50:56.996Z,2.22
2022-08-03T07:53:47.397Z,1.90
2022-08-03T07:56:34.979Z,2.38
2022-08-03T07:59:21.723Z,2.38
2022-08-03T08:02:08.643Z,2.17
2022-08-03T08:04:55.485Z,2.17
2022-08-03T08:07:42.369Z,2.22
2022-08-03T08:10:29.714Z,2.45
2022-08-03T08:13:16.514Z,2.40
2022-08-03T08:16:03.697Z,2.65
2022-08-03T08:18:50.570Z,2.08
2022-08-03T08:22:01.764Z,2.30
2022-08-03T08:24:44.666Z,1.98
2022-08-03T08:28:31.322Z,1.88
2022-08-03T08:30:38.158Z,2.00
2022-08-03T08:33:25.832Z,1.70
2022-08-03T08:36:15.341Z,2.35
2022-08-03T08:39:03.096Z,2.25
2022-08-03T08:41:53.398Z,1.88
2022-08-03T08:44:40.578Z,1.63
2022-08-03T08:47:50.963Z,1.50
2022-08-03T08:50:39.259Z,1.88
2022-08-03T08:53:30.225Z,1.80
2022-08-03T08:56:17.802Z,1.80
2022-08-03T09:01:52.046Z,1.70
2022-08-03T09:04:39.774Z,1.90
2022-08-03T09:07:27.843Z,1.60
2022-08-03T09:10:21.974Z,1.60
2022-08-03T09:13:08.872Z,1.60
2022-08-03T09:16:21.931Z,1.60
2022-08-03T09:19:16.829Z,1.83
2022-08-03T09:22:12.560Z,1.88
2022-08-03T09:25:23.478Z,2.35
2022-08-03T09:28:56.281Z,2.35
2022-08-03T09:31:36.657Z,2.20
2022-08-03T09:34:25.544Z,1.60
2022-08-03T09:37:17.291Z,2.03
2022-08-03T09:40:05.504Z,2.20
2022-08-03T09:42:58.465Z,2.10
2022-08-03T09:45:45.531Z,1.70
2022-08-03T09:48:36.849Z,2.05
2022-08-03T09:52:11.058Z,1.80
2022-08-03T09:57:26.783Z,1.63
2022-08-03T10:00:16.380Z,1.77
2022-08-03T10:03:06.230Z,1.52
2022-08-03T10:05:59.024Z,1.50
2022-08-03T10:09:10.557Z,1.30
2022-08-03T10:11:59.834Z,1.50
2022-08-03T10:14:47.040Z,1.48
2022-08-03T10:17:38.646Z,1.38
2022-08-03T10:20:28.053Z,1.50
2022-08-03T10:23:17.301Z,1.40
2022-08-03T10:26:07.036Z,1.70
2022-08-03T10:28:55.893Z,1.60
2022-08-03T10:31:55.903Z,1.50
2022-08-03T10:34:47.119Z,1.60
2022-08-03T10:37:41.950Z,1.70
2022-08-03T10:40:49.273Z,1.60
2022-08-03T10:43:59.445Z,1.42
2022-08-03T10:46:48.632Z,1.30
2022-08-03T10:49:35.801Z,1.35
2022-08-03T10:52:32.935Z,1.40
2022-08-03T10:55:57.529Z,1.50
2022-08-03T10:58:57.047Z,1.70
2022-08-03T11:01:58.813Z,1.40
2022-08-03T11:04:46.926Z,1.48
2022-08-03T11:07:33.720Z,1.27
2022-08-03T11:10:31.678Z,1.40
2022-08-03T11:13:20.903Z,1.20
2022-08-03T11:16:21.883Z,1.60
2022-08-03T11:19:11.590Z,1.48
2022-08-03T11:21:59.156Z,1.30
2022-08-03T11:24:54.053Z,1.40
2022-08-03T11:27:40.943Z,1.15
2022-08-03T11:30:29.761Z,1.80
2022-08-03T11:33:30.586Z,1.63
2022-08-03T11:36:32.488Z,1.80
2022-08-03T11:39:19.550Z,1.63
2022-08-03T11:42:24.784Z,1.50
2022-08-03T11:45:12.635Z,1.50
2022-08-03T11:48:12.813Z,1.40
2022-08-03T11:51:00.795Z,1.50
2022-08-03T11:53:51.243Z,1.23
2022-08-03T11:56:49.105Z,1.40
2022-08-03T11:59:38.658Z,1.10
2022-08-03T12:02:25.922Z,1.10
2022-08-03T12:05:12.679Z,0.95
2022-08-03T12:08:03.032Z,0.90
2022-08-03T12:10:51.618Z,1.30
2022-08-03T12:14:26.889Z,0.90
2022-08-03T12:16:50.973Z,0.80
2022-08-03T12:19:44.203Z,0.70
2022-08-03T12:22:38.715Z,0.60
2022-08-03T12:25:39.558Z,0.70
2022-08-03T12:28:35.999Z,0.60
2022-08-03T12:31:25.145Z,0.70
2022-08-03T12:34:12.343Z,0.80
2022-08-03T12:37:00.139Z,0.50
2022-08-03T12:40:07.944Z,0.60
2022-08-03T12:42:57.071Z,0.50
2022-08-03T12:45:43.903Z,0.40
2022-08-03T12:48:30.667Z,0.50
2022-08-03T12:51:17.418Z,0.50
2022-08-03T12:54:05.457Z,0.60
2022-08-03T12:57:10.573Z,0.80
2022-08-03T13:00:21.197Z,1.35
2022-08-03T13:03:38.960Z,1.15
2022-08-03T13:06:25.140Z,1.20
2022-08-03T13:09:11.951Z,1.10
2022-08-03T13:12:09.592Z,0.90
2022-08-03T13:14:58.268Z,1.08
2022-08-03T13:17:45.058Z,1.25
2022-08-03T13:23:22.576Z,1.00
2022-08-03T13:26:10.413Z,1.13
2022-08-03T13:28:57.200Z,1.40
2022-08-03T13:31:50.947Z,1.40
2022-08-03T13:34:38.262Z,1.00
2022-08-03T13:37:25.838Z,1.10
2022-08-03T13:40:12.841Z,0.90
2022-08-03T13:43:01.612Z,1.15
2022-08-03T13:45:51.406Z,1.20
2022-08-03T13:48:40.610Z,1.10
2022-08-03T13:54:14.102Z,1.58
2022-08-03T13:58:05.335Z,1.40
2022-08-03T14:00:08.710Z,1.40
2022-08-03T14:03:13.149Z,1.20
2022-08-03T14:06:00.817Z,0.90
2022-08-03T14:08:50.751Z,1.20
2022-08-03T14:12:07.897Z,0.90
2022-08-03T14:14:44.552Z,1.73
2022-08-03T14:17:49.662Z,1.40
2022-08-03T14:20:47.740Z,1.50
2022-08-03T14:23:38.045Z,1.30
2022-08-03T14:26:24.991Z,1.50
2022-08-03T14:29:11.792Z,1.50
2022-08-03T14:32:09.940Z,1.60
2022-08-03T14:34:59.541Z,1.30
2022-08-03T14:37:46.387Z,1.10
2022-08-03T14:40:33.160Z,1.10
2022-08-03T14:43:23.189Z,1.17
2022-08-03T14:46:10.080Z,1.10
2022-08-03T14:50:12.574Z,1.00
2022-08-03T14:52:04.943Z,0.80
2022-08-03T14:54:51.795Z,1.25
2022-08-03T14:57:38.669Z,1.77
2022-08-03T15:00:25.456Z,1.40
2022-08-03T15:03:12.303Z,1.20
2022-08-03T15:06:03.766Z,1.75
2022-08-03T15:11:57.395Z,1.80
2022-08-03T15:14:44.207Z,1.48
2022-08-03T15:17:31.052Z,1.50
2022-08-03T15:20:26.594Z,1.23
2022-08-03T15:23:19.385Z,1.10
2022-08-03T15:26:30.843Z,1.50
2022-08-03T15:30:05.104Z,1.40
2022-08-03T15:32:20.458Z,1.38
2022-08-03T15:35:07.512Z,1.40
2022-08-03T15:40:41.312Z,1.42
2022-08-03T15:43:28.198Z,1.65
2022-08-03T15:46:30.517Z,1.88
2022-08-03T15:49:17.709Z,1.80
2022-08-03T15:54:51.463Z,1.80
2022-08-03T15:59:09.484Z,1.70
2022-08-03T16:00:45.164Z,1.70
2022-08-03T16:03:35.268Z,1.73
2022-08-03T16:06:29.918Z,2.03
2022-08-03T16:09:42.226Z,1.63
2022-08-03T16:12:29.841Z,1.98
2022-08-03T16:15:16.742Z,1.77
2022-08-03T16:18:03.571Z,2.17
2022-08-03T16:20:50.459Z,2.30
2022-08-03T16:23:39.585Z,2.10
2022-08-03T16:26:29.919Z,1.75
2022-08-03T16:29:23.086Z,1.67
2022-08-03T16:32:11.345Z,1.50
2022-08-03T16:34:58.509Z,1.30
2022-08-03T16:40:43.523Z,1.65
2022-08-03T16:43:30.374Z,1.50
2022-08-03T16:46:17.357Z,1.23
2022-08-03T16:49:04.116Z,1.40
2022-08-03T16:51:51.069Z,1.35
2022-08-03T16:54:38.471Z,1.98
2022-08-03T16:57:56.079Z,1.40
2022-08-03T17:00:41.329Z,1.30
2022-08-03T17:03:30.269Z,1.30
2022-08-03T17:06:34.629Z,1.38
2022-08-03T17:09:21.977Z,1.60
2022-08-03T17:12:10.913Z,1.98
2022-08-03T17:14:57.919Z,1.70
2022-08-03T17:18:02.726Z,1.77
2022-08-03T17:20:51.002Z,1.90
2022-08-03T17:23:59.936Z,1.60
2022-08-03T17:26:50.071Z,1.50
2022-08-03T17:29:45.289Z,1.80
2022-08-03T17:32:42.907Z,1.80
2022-08-03T17:35:39.858Z,1.40
2022-08-03T17:38:31.931Z,1.40
2022-08-03T17:41:23.348Z,1.52
2022-08-03T17:44:15.838Z,1.20
2022-08-03T17:47:19.076Z,1.10
2022-08-03T17:50:23.427Z,1.27
2022-08-03T17:53:23.492Z,1.10
2022-08-03T17:56:40.790Z,0.93
2022-08-03T17:59:51.749Z,0.88
2022-08-03T18:03:17.616Z,0.80
2022-08-03T18:06:11.057Z,0.77
2022-08-03T18:09:05.358Z,0.70
2022-08-03T18:12:14.375Z,0.70
2022-08-03T18:15:07.805Z,0.70
2022-08-03T18:18:10.554Z,0.70
2022-08-03T18:23:52.289Z,1.85
2022-08-03T18:26:40.422Z,2.45
2022-08-03T18:29:37.073Z,1.80
2022-08-03T18:32:27.485Z,2.05
2022-08-03T18:35:15.735Z,1.98
2022-08-03T18:38:03.819Z,2.33
2022-08-03T18:40:57.044Z,2.20
2022-08-03T18:44:06.731Z,2.00
2022-08-03T18:47:19.222Z,2.03
2022-08-03T18:50:12.327Z,1.80
2022-08-03T18:54:02.676Z,1.55
2022-08-03T18:56:52.032Z,1.52
2022-08-03T19:00:05.656Z,1.30
2022-08-03T19:03:05.205Z,1.50
2022-08-03T19:06:02.779Z,1.40
2022-08-03T19:09:12.951Z,1.40
2022-08-03T19:12:26.141Z,1.40
2022-08-03T19:15:15.565Z,1.30
2022-08-03T19:18:07.328Z,1.90
2022-08-03T19:20:58.383Z,2.22
2022-08-03T19:23:46.376Z,2.28
2022-08-03T19:26:39.407Z,2.05
2022-08-03T19:29:59.582Z,2.00
2022-08-03T19:32:34.834Z,1.55
2022-08-03T19:35:51.519Z,1.60
2022-08-03T19:38:29.802Z,1.35
2022-08-03T19:41:18.869Z,1.50
2022-08-03T19:44:11.520Z,1.00
2022-08-03T19:47:05.748Z,1.20
2022-08-03T19:50:13.860Z,1.27
2022-08-03T19:53:04.871Z,1.08
2022-08-03T19:55:56.943Z,1.20
2022-08-03T19:58:43.926Z,1.30
2022-08-03T20:01:30.797Z,1.67
2022-08-03T20:04:38.696Z,1.65
2022-08-03T20:07:27.455Z,1.40
2022-08-03T20:10:15.360Z,1.48
2022-08-03T20:13:03.409Z,1.50
2022-08-03T20:15:53.382Z,1.40
2022-08-03T20:21:45.093Z,1.20
2022-08-03T20:24:40.064Z,1.27
2022-08-03T20:27:35.380Z,1.42
2022-08-03T20:30:48.682Z,1.40
2022-08-03T20:33:46.443Z,1.30
2022-08-03T20:36:36.003Z,1.42
2022-08-03T20:39:25.263Z,1.30
2022-08-03T20:42:14.363Z,1.33
2022-08-03T20:46:00.972Z,1.50
2022-08-03T20:48:22.721Z,1.35
2022-08-03T20:51:20.023Z,1.30
2022-08-03T20:54:29.644Z,1.50
2022-08-03T20:57:18.800Z,1.33
2022-08-03T21:00:11.856Z,1.35
2022-08-03T21:02:58.644Z,1.35
2022-08-03T21:05:58.025Z,1.30
2022-08-03T21:08:52.627Z,1.40
2022-08-03T21:11:46.637Z,1.50
2022-08-03T21:14:41.454Z,1.52
2022-08-03T21:17:41.483Z,1.50
2022-08-03T21:20:34.578Z,1.40
2022-08-03T21:23:40.304Z,1.30
2022-08-03T21:26:39.691Z,1.20
2022-08-03T21:29:31.837Z,1.50
2022-08-03T21:32:19.361Z,1.63
2022-08-03T21:35:22.838Z,1.45
2022-08-03T21:38:29.613Z,1.40
2022-08-03T21:41:21.693Z,1.50
2022-08-03T21:44:08.467Z,1.40
2022-08-03T21:47:13.122Z,1.20
2022-08-03T21:50:10.000Z,1.50
2022-08-03T21:52:59.303Z,1.27
2022-08-03T21:56:01.524Z,1.30
2022-08-03T21:58:55.272Z,1.20
2022-08-03T22:01:49.028Z,1.17
2022-08-03T22:04:55.071Z,1.05
2022-08-03T22:07:43.576Z,1.27
2022-08-03T22:10:32.611Z,1.60
2022-08-03T22:13:44.325Z,1.70
2022-08-03T22:16:32.749Z,1.60
2022-08-03T22:19:20.132Z,1.40
2022-08-03T22:22:13.715Z,1.60
2022-08-03T22:25:10.132Z,1.70
2022-08-03T22:28:01.633Z,1.77
2022-08-03T22:30:49.589Z,1.50
2022-08-03T22:33:37.481Z,1.70
2022-08-03T22:36:28.615Z,1.50
2022-08-03T22:39:22.797Z,1.50
2022-08-03T22:42:16.310Z,1.55
2022-08-03T22:45:06.109Z,1.30
2022-08-03T22:47:57.342Z,1.40
2022-08-03T22:50:52.918Z,1.30
2022-08-03T22:53:40.567Z,1.40
2022-08-03T22:59:38.791Z,1.50
2022-08-03T23:02:29.353Z,1.27
2022-08-03T23:06:02.272Z,1.48
2022-08-03T23:08:35.830Z,1.40
2022-08-03T23:11:28.267Z,1.20
2022-08-03T23:14:17.661Z,1.30
2022-08-03T23:17:09.438Z,1.45
2022-08-03T23:20:03.487Z,1.40
2022-08-03T23:22:53.433Z,1.50
2022-08-03T23:25:41.515Z,1.60
2022-08-03T23:28:35.710Z,1.60
2022-08-03T23:31:25.080Z,1.65
2022-08-03T23:34:35.403Z,1.60
2022-08-03T23:37:25.848Z,1.20
2022-08-03T23:40:13.935Z,1.60
2022-08-03T23:43:04.776Z,1.50
2022-08-03T23:45:59.363Z,1.40
2022-08-03T23:48:56.494Z,1.50
2022-08-03T23:52:10.222Z,1.27
2022-08-03T23:55:34.424Z,1.48
2022-08-03T23:58:42.325Z,1.50
